Time;durP1;ratioP1;P1;durP2;ratioP2;P2;SDS_P1;SDS_P2;PMS_P1;PMS_P2;Temp;Humidity;BMP_temperature;BMP_pressure;BME280_temperature;BME280_humidity;BME280_pressure;Samples;Min_cycle;Max_cycle;Signal;HPM_P1;HPM_P2
2022/04/14 00:01:48;;;;;;;12.15;8.52;;;;;;;8.22;57.19;100606.16;5107781;28;20020;-33
2022/04/14 00:04:13;;;;;;;12.75;8.15;;;;;;;8.12;56.59;100609.13;5107612;28;20027;-32
2022/04/14 00:06:39;;;;;;;12.32;8.32;;;;;;;8.12;57.48;100618.94;5107592;28;20455;-28
2022/04/14 00:09:04;;;;;;;13.57;7.90;;;;;;;7.85;57.66;100606.19;5108108;28;20028;-30
2022/04/14 00:11:30;;;;;;;10.85;7.72;;;;;;;7.62;57.75;100600.19;5107798;28;20038;-35
2022/04/14 00:13:56;;;;;;;12.00;8.57;;;;;;;7.60;58.61;100616.31;5107783;28;20059;-33
2022/04/14 00:16:22;;;;;;;14.52;8.57;;;;;;;7.59;59.39;100598.75;5089267;28;20024;-29
2022/04/14 00:18:47;;;;;;;11.73;8.43;;;;;;;7.83;59.45;100628.63;5107462;28;20039;-33
2022/04/14 00:21:13;;;;;;;12.60;8.70;;;;;;;7.43;58.77;100593.66;5107846;28;20499;-30
2022/04/14 00:23:39;;;;;;;13.02;8.90;;;;;;;7.36;59.55;100601.53;5107744;28;20523;-28
2022/04/14 00:26:04;;;;;;;13.05;8.82;;;;;;;7.24;60.05;100630.34;5107504;28;20027;-28
2022/04/14 00:28:30;;;;;;;12.95;9.10;;;;;;;6.86;62.13;100615.50;5107145;28;20027;-28
2022/04/14 00:30:55;;;;;;;11.68;9.25;;;;;;;6.87;61.53;100627.78;5108012;28;20031;-28
2022/04/14 00:33:21;;;;;;;13.25;9.32;;;;;;;7.13;61.63;100606.94;5107602;28;20031;-30
2022/04/14 00:35:46;;;;;;;13.05;9.52;;;;;;;7.41;60.22;100608.94;5107174;28;20059;-30
2022/04/14 00:38:12;;;;;;;14.45;9.20;;;;;;;7.30;60.82;100612.06;5107703;28;20036;-29
2022/04/14 00:40:37;;;;;;;12.65;9.43;;;;;;;7.01;61.23;100616.38;5107234;28;20086;-28
2022/04/14 00:43:03;;;;;;;16.85;10.40;;;;;;;6.77;62.24;100602.34;5107394;28;20027;-30
2022/04/14 00:45:28;;;;;;;14.52;9.38;;;;;;;6.80;62.03;100615.25;5107425;28;20028;-30
2022/04/14 00:47:54;;;;;;;14.40;10.10;;;;;;;6.77;62.56;100602.34;5088873;28;20031;-29
2022/04/14 00:50:20;;;;;;;14.48;10.40;;;;;;;6.84;62.47;100626.28;5088645;28;20020;-29
2022/04/14 00:52:46;;;;;;;16.08;11.70;;;;;;;6.74;62.66;100615.97;5089184;28;20088;-32
2022/04/14 00:55:16;;;;;;;15.20;11.52;;;;;;;6.92;62.39;100622.72;5107694;28;20510;-32
2022/04/14 00:57:44;;;;;;;19.95;15.02;;;;;;;7.14;61.72;100613.88;5092566;28;20103;-31
2022/04/14 01:00:10;;;;;;;19.20;13.57;;;;;;;7.16;61.40;100630.44;5111207;28;20114;-33
2022/04/14 01:02:36;;;;;;;13.70;11.30;;;;;;;6.90;61.12;100622.91;5111030;28;20114;-31
2022/04/14 01:05:04;;;;;;;14.18;10.80;;;;;;;6.62;62.60;100609.44;5092740;28;20050;-29
2022/04/14 01:07:30;;;;;;;17.30;11.70;;;;;;;6.73;61.59;100618.78;5092588;28;20042;-31
2022/04/14 01:09:56;;;;;;;15.18;10.65;;;;;;;6.72;61.51;100625.91;5110933;28;20345;-29
2022/04/14 01:12:23;;;;;;;15.85;11.85;;;;;;;6.59;61.71;100631.00;5092303;28;20043;-29
2022/04/14 01:14:48;;;;;;;16.88;12.30;;;;;;;6.62;62.54;100633.31;5110992;28;20023;-33
2022/04/14 01:17:14;;;;;;;16.30;10.65;;;;;;;6.71;61.79;100628.75;5092093;28;20064;-29
2022/04/14 01:19:39;;;;;;;17.10;11.90;;;;;;;6.46;62.89;100628.09;5092425;28;20514;-30
2022/04/14 01:22:30;;;;;;;16.50;10.60;;;;;;;6.41;62.02;100629.47;5092290;28;20415;-29
2022/04/14 01:24:57;;;;;;;15.75;10.70;;;;;;;6.40;62.81;100635.78;5092408;28;20057;-31
2022/04/14 01:27:23;;;;;;;15.45;9.35;;;;;;;6.81;61.88;100630.13;5110430;28;20088;-31
2022/04/14 01:29:51;;;;;;;19.92;13.32;;;;;;;6.27;63.63;100624.13;5110327;28;20031;-30
2022/04/14 01:32:19;;;;;;;17.63;11.13;;;;;;;6.42;63.03;100628.47;5109073;28;20036;-31
2022/04/14 01:34:45;;;;;;;15.52;10.27;;;;;;;6.01;63.53;100612.88;5110381;28;20035;-31
2022/04/14 01:37:10;;;;;;;14.55;9.45;;;;;;;6.30;63.58;100632.53;5110180;28;20043;-28
2022/04/14 01:39:36;;;;;;;15.38;10.25;;;;;;;6.44;63.19;100625.66;5091746;28;20073;-29
2022/04/14 01:42:01;;;;;;;15.35;9.50;;;;;;;6.65;63.31;100635.56;5110423;28;20020;-30
2022/04/14 01:44:27;;;;;;;12.25;9.32;;;;;;;6.59;61.58;100631.00;5109835;28;20035;-28
2022/04/14 01:46:52;;;;;;;17.58;10.95;;;;;;;6.28;63.39;100636.38;5110458;28;20104;-29
2022/04/14 01:49:18;;;;;;;17.13;11.18;;;;;;;6.26;63.27;100619.84;5110162;28;20039;-31
2022/04/14 01:51:43;;;;;;;15.57;10.40;;;;;;;6.75;61.21;100641.44;5110243;28;20027;-30
2022/04/14 01:54:09;;;;;;;15.65;10.68;;;;;;;6.08;63.42;100636.00;5109793;28;20035;-29
2022/04/14 01:56:34;;;;;;;14.98;9.65;;;;;;;5.39;65.41;100645.41;5109891;28;20044;-30
2022/04/14 01:59:00;;;;;;;16.42;12.02;;;;;;;5.77;65.83;100621.75;5109677;28;20024;-29
2022/04/14 02:01:26;;;;;;;15.27;10.05;;;;;;;5.90;64.64;100652.94;5110067;28;20033;-28
2022/04/14 02:03:52;;;;;;;15.10;10.25;;;;;;;5.10;66.74;100624.81;5109978;28;20027;-29
2022/04/14 02:06:18;;;;;;;19.15;10.68;;;;;;;4.75;69.64;100658.59;5109658;28;20407;-30
2022/04/14 02:08:44;;;;;;;16.15;10.10;;;;;;;4.74;68.80;100651.66;5090789;28;20124;-30
2022/04/14 02:11:10;;;;;;;12.77;10.13;;;;;;;4.47;68.84;100622.94;5109617;28;20081;-29
2022/04/14 02:13:36;;;;;;;14.93;10.02;;;;;;;4.34;69.96;100650.66;5109398;28;20693;-29
2022/04/14 02:16:03;;;;;;;14.38;10.18;;;;;;;4.48;69.01;100648.38;5074496;28;20517;-29
2022/04/14 02:18:28;;;;;;;18.38;10.43;;;;;;;4.36;68.33;100632.00;5109461;28;20027;-29
2022/04/14 02:20:54;;;;;;;19.02;13.20;;;;;;;4.54;68.02;100651.16;5109845;28;20031;-28
2022/04/14 02:23:19;;;;;;;16.73;12.88;;;;;;;4.71;68.23;100646.69;5109479;28;20020;-29
2022/04/14 02:25:45;;;;;;;16.92;10.50;;;;;;;4.83;68.89;100663.03;5109516;28;20044;-28
2022/04/14 02:28:11;;;;;;;18.88;12.70;;;;;;;4.60;69.40;100655.78;5108998;28;20076;-28
2022/04/14 02:30:37;;;;;;;21.02;11.40;;;;;;;4.33;68.98;100638.44;5091127;28;20508;-28
2022/04/14 02:33:03;;;;;;;15.40;10.40;;;;;;;4.35;68.34;100639.13;5109273;28;20532;-28
2022/04/14 02:35:28;;;;;;;13.75;9.00;;;;;;;4.22;69.00;100654.59;5090675;28;20042;-28
2022/04/14 02:37:56;;;;;;;15.07;10.35;;;;;;;4.16;69.55;100636.78;5090820;28;20419;-30
2022/04/14 02:40:24;;;;;;;13.77;9.98;;;;;;;4.26;70.70;100650.63;5108880;28;20061;-29
2022/04/14 02:42:50;;;;;;;13.98;9.93;;;;;;;4.18;70.98;100637.44;5090335;28;20067;-29
2022/04/14 02:45:16;;;;;;;20.13;14.40;;;;;;;4.61;70.84;100648.69;5090620;28;20103;-29
2022/04/14 02:47:41;;;;;;;18.55;12.63;;;;;;;4.47;71.81;100659.91;5090805;28;20403;-29
2022/04/14 02:50:07;;;;;;;16.38;12.23;;;;;;;4.47;72.06;100654.63;5109009;28;20484;-28
2022/04/14 02:52:33;;;;;;;17.15;12.93;;;;;;;4.60;71.39;100655.78;5090340;28;20027;-29
2022/04/14 02:54:58;;;;;;;19.77;15.07;;;;;;;4.50;71.01;100647.19;5108692;28;20020;-29
2022/04/14 02:57:24;;;;;;;15.52;10.25;;;;;;;4.93;70.05;100661.03;5108643;28;20023;-30
2022/04/14 02:59:49;;;;;;;14.75;10.70;;;;;;;4.93;68.86;100652.31;5108772;28;20030;-33
2022/04/14 03:02:15;;;;;;;13.90;10.73;;;;;;;4.93;69.66;100665.50;5108488;28;20053;-29
2022/04/14 03:04:40;;;;;;;14.70;10.20;;;;;;;4.65;69.75;100610.38;5108820;28;20494;-30
2022/04/14 03:07:06;;;;;;;15.55;9.73;;;;;;;4.81;68.28;100662.38;5108519;28;20024;-31
2022/04/14 03:09:31;;;;;;;13.57;8.82;;;;;;;4.55;69.47;100651.97;5108591;28;20031;-32
2022/04/14 03:11:56;;;;;;;12.80;9.55;;;;;;;4.81;68.22;100670.31;5108264;28;20024;-32
2022/04/14 03:14:22;;;;;;;15.57;9.95;;;;;;;4.59;69.09;100648.03;5108815;28;20046;-30
2022/04/14 03:16:47;;;;;;;16.65;12.52;;;;;;;4.34;69.69;100649.84;5108516;28;20019;-29
2022/04/14 03:19:13;;;;;;;15.20;10.98;;;;;;;4.09;69.94;100660.34;5107518;28;20031;-27
2022/04/14 03:21:38;;;;;;;14.07;10.32;;;;;;;4.11;70.98;100666.31;5108309;28;20028;-28
2022/04/14 03:24:04;;;;;;;15.40;11.68;;;;;;;4.26;69.97;100670.94;5108167;28;20038;-28
2022/04/14 03:26:30;;;;;;;15.32;10.85;;;;;;;4.12;69.53;100677.69;5106406;28;20050;-31
2022/04/14 03:28:55;;;;;;;16.13;11.73;;;;;;;3.88;70.66;100681.88;5108220;28;20047;-31
2022/04/14 03:31:20;;;;;;;16.65;11.57;;;;;;;4.17;69.50;100670.13;5089018;28;20456;-29
2022/04/14 03:33:46;;;;;;;13.07;9.60;;;;;;;4.10;69.21;100663.81;5107545;28;20031;-29
2022/04/14 03:36:11;;;;;;;11.80;8.68;;;;;;;4.15;68.47;100650.97;5107756;28;20056;-29
2022/04/14 03:38:37;;;;;;;12.55;9.02;;;;;;;4.27;69.00;100670.78;5089527;28;20039;-35
2022/04/14 03:41:07;;;;;;;11.95;7.88;;;;;;;4.14;68.69;100671.25;5107991;28;20024;-30
2022/04/14 03:43:34;;;;;;;11.68;8.40;;;;;;;4.25;68.38;100690.41;5089873;28;20028;-28
2022/04/14 03:46:00;;;;;;;15.30;10.05;;;;;;;4.30;69.22;100702.13;5089653;28;20121;-30
2022/04/14 03:48:25;;;;;;;16.90;10.80;;;;;;;4.32;69.08;100689.59;5107747;28;20033;-29
2022/04/14 03:50:51;;;;;;;12.52;9.98;;;;;;;4.24;69.19;100673.75;5107967;28;20027;-30
2022/04/14 03:53:18;;;;;;;13.30;9.30;;;;;;;4.47;68.85;100694.25;5107953;28;20062;-29
2022/04/14 03:55:43;;;;;;;14.10;8.88;;;;;;;4.33;69.61;100685.97;5107402;28;20493;-29
2022/04/14 03:58:09;;;;;;;12.80;8.35;;;;;;;4.32;68.89;100694.06;5107765;28;20031;-29
2022/04/14 04:00:34;;;;;;;14.43;8.73;;;;;;;4.12;67.49;100683.78;5089649;28;20092;-31
2022/04/14 04:03:00;;;;;;;15.10;9.45;;;;;;;3.87;70.27;100705.81;5107735;28;20023;-30
2022/04/14 04:05:25;;;;;;;17.90;9.40;;;;;;;3.32;71.84;100712.31;5107545;28;20034;-30
2022/04/14 04:07:51;;;;;;;15.32;9.43;;;;;;;3.27;72.81;100711.94;5107892;28;20032;-28
2022/04/14 04:10:16;;;;;;;15.27;9.23;;;;;;;3.89;70.22;100709.94;5107306;28;20126;-29
2022/04/14 04:12:42;;;;;;;14.68;9.70;;;;;;;3.15;72.33;100716.66;5089305;28;20047;-28
2022/04/14 04:15:07;;;;;;;15.02;9.68;;;;;;;3.35;72.62;100722.53;5107303;28;20411;-32
2022/04/14 04:17:33;;;;;;;17.30;9.93;;;;;;;3.17;72.80;100725.22;5089090;28;20027;-29
2022/04/14 04:19:58;;;;;;;14.43;9.93;;;;;;;3.35;71.96;100711.97;5107536;28;20063;-30
2022/04/14 04:22:24;;;;;;;14.85;9.60;;;;;;;3.37;72.83;100721.41;5107233;28;20035;-34
2022/04/14 04:24:49;;;;;;;16.15;10.38;;;;;;;3.40;73.29;100714.97;5107698;28;20031;-29
2022/04/14 04:27:15;;;;;;;14.48;9.82;;;;;;;3.41;72.93;100732.44;5107628;28;20036;-29
2022/04/14 04:29:40;;;;;;;19.77;11.35;;;;;;;3.59;72.53;100712.09;5107572;28;20065;-29
2022/04/14 04:32:06;;;;;;;13.25;9.27;;;;;;;4.10;70.33;100733.25;5111494;28;20028;-28
2022/04/14 04:34:32;;;;;;;19.25;11.10;;;;;;;4.19;70.56;100728.84;5111090;28;20028;-32
2022/04/14 04:36:57;;;;;;;19.80;10.93;;;;;;;4.42;69.51;100729.88;5093115;28;20496;-29
2022/04/14 04:39:22;;;;;;;13.07;7.93;;;;;;;5.09;66.11;100734.22;5111160;28;20024;-28
2022/04/14 04:41:48;;;;;;;12.75;8.05;;;;;;;5.08;65.37;100723.81;5111554;28;20096;-29
2022/04/14 04:44:13;;;;;;;23.95;10.40;;;;;;;5.12;66.39;100722.50;5111280;28;20092;-30
2022/04/14 04:46:38;;;;;;;22.27;12.80;;;;;;;5.19;68.46;100732.22;5111392;28;20032;-29
2022/04/14 04:49:04;;;;;;;22.45;12.35;;;;;;;5.34;67.79;100742.13;5111367;28;20415;-31
2022/04/14 04:51:29;;;;;;;19.27;13.73;;;;;;;5.42;67.15;100736.81;5092743;28;20024;-29
2022/04/14 04:53:55;;;;;;;26.33;16.13;;;;;;;5.66;67.82;100741.22;5111075;28;20399;-29
2022/04/14 04:56:20;;;;;;;22.48;13.65;;;;;;;5.57;67.88;100743.06;5109608;28;20424;-32
2022/04/14 04:58:46;;;;;;;17.90;11.65;;;;;;;5.53;67.24;100739.09;5110937;28;20084;-28
2022/04/14 05:01:12;;;;;;;17.02;12.43;;;;;;;5.52;68.23;100739.28;5111056;28;20038;-28
2022/04/14 05:03:38;;;;;;;16.70;11.98;;;;;;;5.56;68.02;100741.41;5092582;28;20038;-31
2022/04/14 05:06:04;;;;;;;16.58;11.60;;;;;;;5.39;69.54;100742.44;5092527;28;20089;-30
2022/04/14 05:08:29;;;;;;;25.75;11.73;;;;;;;5.69;68.04;100751.47;5110453;28;20039;-31
2022/04/14 05:10:55;;;;;;;21.35;12.50;;;;;;;5.75;68.54;100755.25;5111122;28;20081;-30
2022/04/14 05:13:21;;;;;;;19.25;12.88;;;;;;;5.86;68.27;100754.06;5110772;28;20531;-29
2022/04/14 05:15:46;;;;;;;17.65;12.38;;;;;;;5.66;69.44;100749.19;5110839;28;20031;-29
2022/04/14 05:18:12;;;;;;;16.08;11.27;;;;;;;5.38;71.98;100770.72;5110716;28;20023;-29
2022/04/14 05:20:38;;;;;;;14.68;10.98;;;;;;;5.75;71.26;100748.13;5110705;28;20031;-28
2022/04/14 05:23:07;;;;;;;16.65;11.50;;;;;;;6.10;69.92;100758.47;5092117;28;20040;-29
2022/04/14 05:25:32;;;;;;;16.88;10.60;;;;;;;6.29;69.36;100751.91;5092302;28;20089;-28
2022/04/14 05:27:58;;;;;;;15.88;11.00;;;;;;;6.79;67.09;100758.56;5110700;28;20415;-31
2022/04/14 05:30:24;;;;;;;14.30;11.07;;;;;;;6.71;66.55;100762.09;5110158;28;20032;-30
2022/04/14 05:32:50;;;;;;;15.88;11.10;;;;;;;6.66;67.92;100768.91;5092023;28;20039;-29
2022/04/14 05:35:15;;;;;;;16.33;10.38;;;;;;;6.94;67.28;100777.16;5091457;28;20413;-30
2022/04/14 05:37:41;;;;;;;14.52;9.68;;;;;;;6.91;65.01;100777.53;5110063;28;20048;-31
2022/04/14 05:40:08;;;;;;;14.15;10.77;;;;;;;7.26;63.40;100754.84;5091919;28;20024;-28
2022/04/14 05:42:34;;;;;;;15.70;11.18;;;;;;;7.45;63.35;100775.56;5090805;28;20084;-29
2022/04/14 05:44:59;;;;;;;18.98;12.52;;;;;;;7.86;62.85;100766.34;5091792;28;20035;-31
2022/04/14 05:47:25;;;;;;;17.67;10.43;;;;;;;7.91;62.11;100768.47;5110144;28;20028;-30
2022/04/14 05:49:51;;;;;;;23.73;12.02;;;;;;;7.92;61.94;100773.56;5110029;28;20024;-29
2022/04/14 05:52:17;;;;;;;14.18;10.35;;;;;;;7.82;63.72;100765.06;5091144;28;20100;-30
2022/04/14 05:54:46;;;;;;;16.67;10.85;;;;;;;7.58;64.92;100774.09;5109984;28;20024;-29
2022/04/14 05:57:12;;;;;;;17.42;9.10;;;;;;;8.21;64.86;100775.41;5109957;28;20035;-34
2022/04/14 05:59:37;;;;;;;12.95;8.57;;;;;;;8.41;62.25;100770.31;5109695;28;20031;-29
2022/04/14 06:02:03;;;;;;;14.00;9.43;;;;;;;8.83;60.99;100768.72;5109956;28;20023;-30
2022/04/14 06:04:28;;;;;;;12.50;9.13;;;;;;;9.04;60.19;100775.06;5109449;28;20027;-29
2022/04/14 06:06:54;;;;;;;11.48;7.90;;;;;;;8.35;60.55;100755.09;5109568;28;20027;-31
2022/04/14 06:09:19;;;;;;;14.27;9.05;;;;;;;8.90;61.11;100778.59;5109819;28;20027;-31
2022/04/14 06:11:45;;;;;;;14.30;9.25;;;;;;;9.17;61.74;100764.50;5091252;28;20028;-29
2022/04/14 06:14:10;;;;;;;13.77;8.65;;;;;;;9.20;61.90;100784.59;5109243;28;20024;-29
2022/04/14 06:16:35;;;;;;;11.88;8.70;;;;;;;9.14;60.79;100762.25;5109624;28;20028;-30
2022/04/14 06:19:01;;;;;;;11.40;7.50;;;;;;;9.73;58.55;100774.34;5109369;28;20020;-32
2022/04/14 06:21:27;;;;;;;11.55;8.15;;;;;;;9.64;58.00;100781.66;5109450;28;20445;-29
2022/04/14 06:23:52;;;;;;;12.05;7.78;;;;;;;9.83;57.37;100760.66;5109314;28;20471;-32
2022/04/14 06:26:17;;;;;;;13.13;8.57;;;;;;;9.86;58.32;100763.75;5073830;28;20032;-29
2022/04/14 06:28:46;;;;;;;13.45;8.20;;;;;;;10.42;55.24;100760.13;5109182;28;20032;-30
2022/04/14 06:31:12;;;;;;;13.90;8.07;;;;;;;10.33;55.80;100776.50;5109315;28;20030;-28
2022/04/14 06:33:38;;;;;;;12.55;8.02;;;;;;;10.41;55.77;100779.78;5109210;28;20019;-30
2022/04/14 06:36:04;;;;;;;13.35;8.00;;;;;;;10.35;57.00;100755.78;5090473;28;20453;-30
2022/04/14 06:38:29;;;;;;;10.75;8.30;;;;;;;10.18;56.26;100749.97;5090626;28;20058;-30
2022/04/14 06:40:55;;;;;;;11.80;8.10;;;;;;;10.78;53.68;100777.63;5109118;28;20051;-29
2022/04/14 06:43:21;;;;;;;15.90;9.18;;;;;;;10.91;53.28;100773.34;5109124;28;20019;-29
2022/04/14 06:45:47;;;;;;;13.43;8.45;;;;;;;11.07;52.90;100786.28;5108956;28;20093;-31
2022/04/14 06:48:13;;;;;;;13.48;8.63;;;;;;;10.93;54.91;100780.13;5108716;28;20028;-29
2022/04/14 06:50:40;;;;;;;12.93;8.05;;;;;;;10.89;53.28;100778.06;5109047;28;20062;-29
2022/04/14 06:53:05;;;;;;;13.48;8.77;;;;;;;10.85;53.81;100770.47;5108956;28;20532;-32
2022/04/14 06:55:32;;;;;;;13.48;8.95;;;;;;;11.24;54.09;100776.84;5090631;28;20027;-29
2022/04/14 06:57:58;;;;;;;11.32;8.48;;;;;;;11.38;52.83;100787.53;5090599;28;20024;-30
2022/04/14 07:00:25;;;;;;;12.90;8.73;;;;;;;11.62;52.58;100784.19;5090233;28;20116;-29
2022/04/14 07:02:52;;;;;;;13.68;9.32;;;;;;;11.68;52.88;100787.09;5090346;28;20040;-29
2022/04/14 07:05:19;;;;;;;14.10;9.95;;;;;;;11.63;52.76;100788.53;5108671;28;20028;-29
2022/04/14 07:07:45;;;;;;;17.85;9.75;;;;;;;11.65;53.33;100778.47;5090383;28;20031;-31
2022/04/14 07:10:12;;;;;;;12.27;8.73;;;;;;;11.77;52.26;100780.47;5108699;28;20510;-31
2022/04/14 07:12:38;;;;;;;14.68;9.98;;;;;;;11.86;51.05;100785.41;5108631;28;20024;-30
2022/04/14 07:15:05;;;;;;;15.32;10.75;;;;;;;12.32;50.41;100798.84;5090464;28;20047;-29
2022/04/14 07:17:30;;;;;;;14.77;10.05;;;;;;;12.27;50.47;100804.84;5090008;28;20043;-29
2022/04/14 07:19:57;;;;;;;12.38;9.55;;;;;;;12.22;51.25;100783.28;5089888;28;20035;-30
2022/04/14 07:22:23;;;;;;;16.48;9.50;;;;;;;12.52;49.96;100799.56;5108433;28;20027;-31
2022/04/14 07:24:49;;;;;;;15.40;9.45;;;;;;;12.63;51.07;100776.69;5108481;28;20031;-34
2022/04/14 07:27:20;;;;;;;13.85;8.55;;;;;;;13.00;49.02;100790.25;5089845;28;20691;-29
2022/04/14 07:29:46;;;;;;;12.68;7.30;;;;;;;13.22;46.14;100793.38;5108074;28;20735;-29
2022/04/14 07:32:12;;;;;;;10.18;6.93;;;;;;;13.53;43.81;100795.19;5107762;28;20487;-32
2022/04/14 07:34:38;;;;;;;10.23;7.05;;;;;;;13.79;45.03;100804.84;5089781;28;20504;-29
2022/04/14 07:37:04;;;;;;;12.88;7.40;;;;;;;13.70;44.07;100794.63;5108292;28;20059;-30
2022/04/14 07:39:30;;;;;;;11.70;6.47;;;;;;;13.87;42.69;100801.03;5089571;28;20039;-32
2022/04/14 07:41:55;;;;;;;9.98;6.55;;;;;;;13.66;44.24;100781.66;5108118;28;20028;-29
2022/04/14 07:44:21;;;;;;;10.75;6.65;;;;;;;13.83;45.33;100794.47;5108041;28;20483;-30
2022/04/14 07:46:46;;;;;;;8.75;5.80;;;;;;;13.90;43.37;100802.47;5107850;28;20116;-30
2022/04/14 07:49:12;;;;;;;9.70;5.45;;;;;;;14.07;42.70;100796.25;5089571;28;20115;-30
2022/04/14 07:51:37;;;;;;;8.57;4.68;;;;;;;14.06;39.56;100791.97;5107746;28;20483;-33
2022/04/14 07:54:03;;;;;;;7.65;4.13;;;;;;;14.29;40.94;100795.00;5107980;28;20023;-29
2022/04/14 07:56:28;;;;;;;9.25;5.38;;;;;;;14.35;40.63;100808.31;5108018;28;20039;-30
2022/04/14 07:58:54;;;;;;;10.73;6.15;;;;;;;14.66;42.03;100776.97;5107764;28;20030;-29
2022/04/14 08:01:19;;;;;;;9.88;5.53;;;;;;;14.93;40.08;100798.06;5107670;28;20031;-30
2022/04/14 08:03:46;;;;;;;9.18;5.32;;;;;;;14.74;40.07;100787.41;5107642;28;20028;-31
2022/04/14 08:06:13;;;;;;;8.63;6.22;;;;;;;14.93;41.83;100781.97;5112270;28;20023;-31
2022/04/14 08:08:39;;;;;;;12.27;7.03;;;;;;;15.32;41.29;100790.44;5096029;28;20023;-31
2022/04/14 08:11:04;;;;;;;8.75;5.00;;;;;;;15.37;38.80;100793.25;5096261;28;20032;-33
2022/04/14 08:13:35;;;;;;;8.98;5.70;;;;;;;15.64;38.67;100788.22;5096142;28;20612;-31
2022/04/14 08:16:04;;;;;;;7.75;5.40;;;;;;;15.69;38.47;100796.38;5114626;28;20505;-32
2022/04/14 08:18:29;;;;;;;8.68;5.55;;;;;;;16.06;35.41;100793.47;5095747;28;20192;-31
2022/04/14 08:20:57;;;;;;;11.32;5.63;;;;;;;16.40;37.97;100790.91;5114595;28;20111;-30
2022/04/14 08:23:23;;;;;;;9.35;5.70;;;;;;;16.54;37.10;100796.81;5096026;28;20076;-31
2022/04/14 08:25:48;;;;;;;10.35;5.75;;;;;;;16.22;36.52;100787.34;5114483;28;20127;-33
2022/04/14 08:28:14;;;;;;;9.75;5.45;;;;;;;15.79;36.39;100783.22;5114044;28;20621;-30
2022/04/14 08:30:41;;;;;;;9.00;5.35;;;;;;;16.14;34.77;100787.72;5114436;28;20063;-30
2022/04/14 08:33:07;;;;;;;10.50;5.93;;;;;;;16.71;36.77;100786.91;5114689;28;20039;-29
2022/04/14 08:35:34;;;;;;;10.88;6.80;;;;;;;16.97;38.46;100795.47;5095463;28;20039;-29
2022/04/14 08:38:04;;;;;;;9.02;5.85;;;;;;;17.15;37.64;100789.84;5095890;28;20116;-29
2022/04/14 08:40:40;;;;;;;10.20;5.75;;;;;;;17.37;32.82;100781.03;5113931;28;20106;-32
2022/04/14 08:43:10;;;;;;;8.50;5.38;;;;;;;17.76;36.60;100786.44;5095583;28;20027;-33
2022/04/14 08:45:37;;;;;;;9.70;5.75;;;;;;;17.73;35.78;100792.31;5095707;28;20024;-32
2022/04/14 08:48:04;;;;;;;11.23;7.07;;;;;;;17.53;33.62;100777.50;5095800;28;20769;-30
2022/04/14 08:50:31;;;;;;;9.87;5.67;;;;;;;17.53;34.20;100774.81;5095485;28;20031;-30
2022/04/14 08:52:57;;;;;;;9.30;5.38;;;;;;;17.52;31.70;100791.22;5095665;28;20266;-29
2022/04/14 08:55:23;;;;;;;8.50;4.82;;;;;;;17.61;30.93;100779.78;5114001;28;20323;-29
2022/04/14 08:57:49;;;;;;;7.55;4.57;;;;;;;18.04;29.60;100782.75;5095450;28;20116;-29
2022/04/14 09:00:17;;;;;;;11.35;4.75;;;;;;;18.67;31.70;100781.34;5095385;28;20129;-31
2022/04/14 09:02:45;;;;;;;8.63;4.75;;;;;;;18.87;32.18;100769.09;5095817;28;20027;-29
2022/04/14 09:05:12;;;;;;;9.10;4.95;;;;;;;18.36;32.15;100752.38;5095616;28;20039;-29
2022/04/14 09:07:38;;;;;;;8.43;4.80;;;;;;;18.52;33.85;100756.06;5095727;28;20031;-33
2022/04/14 09:10:07;;;;;;;10.63;5.13;;;;;;;18.60;30.60;100766.41;5095611;28;20062;-30
2022/04/14 09:12:36;;;;;;;7.10;4.60;;;;;;;18.62;31.63;100756.16;5113586;28;20148;-29
2022/04/14 09:15:02;;;;;;;7.28;4.30;;;;;;;18.74;30.24;100764.91;5095739;28;20590;-29
2022/04/14 09:17:28;;;;;;;7.82;4.18;;;;;;;18.45;32.42;100746.28;5093586;28;20051;-29
2022/04/14 09:19:53;;;;;;;8.75;4.38;;;;;;;18.53;30.67;100777.41;5110571;28;20036;-34
2022/04/14 09:22:20;;;;;;;6.88;3.95;;;;;;;18.56;28.65;100760.69;5110504;28;20023;-33
2022/04/14 09:24:49;;;;;;;6.18;3.15;;;;;;;18.74;26.91;100754.09;5110581;28;20031;-29
2022/04/14 09:27:29;;;;;;;6.32;3.30;;;;;;;19.09;26.60;100755.50;5110675;28;20027;-30
2022/04/14 09:29:56;;;;;;;7.35;3.70;;;;;;;18.89;27.47;100764.25;5092018;28;20099;-30
2022/04/14 09:32:38;;;;;;;7.30;3.23;;;;;;;19.18;27.38;100756.66;5110089;28;20024;-30
2022/04/14 09:35:19;;;;;;;6.57;3.72;;;;;;;19.45;26.30;100753.88;5091666;28;20035;-29
2022/04/14 09:37:59;;;;;;;5.68;2.50;;;;;;;19.55;25.46;100758.50;5110395;28;20112;-34
2022/04/14 09:40:29;;;;;;;6.03;2.97;;;;;;;19.38;25.90;100737.03;5110085;28;20049;-36
2022/04/14 09:42:54;;;;;;;7.32;3.78;;;;;;;19.31;27.87;100735.63;5091718;28;20035;-32
2022/04/14 09:45:28;;;;;;;6.25;3.22;;;;;;;19.96;27.96;100750.66;5110531;28;20061;-30
2022/04/14 09:47:55;;;;;;;7.50;3.47;;;;;;;19.82;28.06;100735.97;5091427;28;20118;-31
2022/04/14 09:50:35;;;;;;;6.07;3.15;;;;;;;19.87;29.21;100744.09;5091622;28;20043;-33
2022/04/14 09:53:07;;;;;;;6.07;2.97;;;;;;;20.11;27.85;100732.81;5091739;28;20507;-33
2022/04/14 09:55:52;;;;;;;5.93;2.58;;;;;;;19.99;24.06;100736.56;5110081;28;20031;-29
2022/04/14 09:58:26;;;;;;;7.20;3.10;;;;;;;20.46;27.01;100723.97;5101814;28;20114;-29
2022/04/14 10:00:52;;;;;;;6.85;3.35;;;;;;;20.45;25.31;100712.31;5091535;28;20047;-33
2022/04/14 10:03:22;;;;;;;9.35;3.20;;;;;;;20.45;26.42;100723.16;5110265;28;20070;-31
2022/04/14 10:05:49;;;;;;;6.22;3.30;;;;;;;20.72;25.90;100721.28;5091403;28;20514;-31
2022/04/14 10:08:16;;;;;;;7.15;3.63;;;;;;;20.45;26.68;100706.06;5091346;28;20118;-30
2022/04/14 10:10:46;;;;;;;5.40;3.30;;;;;;;20.30;26.71;100725.81;5091075;28;20055;-32
2022/04/14 10:13:15;;;;;;;6.60;3.45;;;;;;;20.77;25.42;100719.41;5091384;28;20034;-33
2022/04/14 10:15:45;;;;;;;5.30;3.22;;;;;;;21.21;24.06;100718.84;5091437;28;20109;-29
2022/04/14 10:18:16;;;;;;;5.30;3.03;;;;;;;21.02;23.97;100720.47;5090879;28;20419;-35
2022/04/14 10:20:44;;;;;;;7.28;3.50;;;;;;;20.30;24.39;100709.56;5091642;28;20027;-32
2022/04/14 10:23:12;;;;;;;5.40;3.28;;;;;;;20.33;25.66;100702.78;5108154;28;20102;-30
2022/04/14 10:25:38;;;;;;;6.25;3.20;;;;;;;21.29;26.79;100714.75;5090806;28;20161;-30
2022/04/14 10:28:07;;;;;;;6.25;3.28;;;;;;;21.78;24.72;100714.09;5089913;28;20024;-32
2022/04/14 10:30:32;;;;;;;4.43;2.40;;;;;;;21.12;20.62;100698.75;5090550;28;20126;-34
2022/04/14 10:32:58;;;;;;;5.65;3.03;;;;;;;21.57;20.92;100715.25;5109438;28;20559;-30
2022/04/14 10:35:26;;;;;;;4.40;2.35;;;;;;;21.82;20.32;100714.31;5108466;28;20035;-36
2022/04/14 10:38:10;;;;;;;5.63;2.90;;;;;;;22.03;22.15;100713.16;5099951;27;20095;-32
2022/04/14 10:40:37;;;;;;;5.43;2.60;;;;;;;22.72;21.36;100710.56;5110816;27;20480;-35
2022/04/14 10:43:08;;;;;;;6.10;2.88;;;;;;;21.84;22.55;100698.56;5129035;27;20030;-32
2022/04/14 10:45:48;;;;;;;5.25;2.80;;;;;;;22.04;21.39;100714.75;5110877;27;20042;-29
2022/04/14 10:48:30;;;;;;;6.85;2.95;;;;;;;22.32;21.55;100698.09;5109928;27;20033;-30
2022/04/14 10:51:13;;;;;;;5.50;3.10;;;;;;;22.86;20.02;100707.97;5108548;28;20081;-29
2022/04/14 10:54:06;;;;;;;4.50;2.78;;;;;;;22.38;21.18;100691.50;5108608;28;20654;-29
2022/04/14 10:56:34;;;;;;;4.72;2.55;;;;;;;22.81;21.83;100706.13;5108135;28;20023;-30
2022/04/14 10:59:11;;;;;;;5.78;2.70;;;;;;;22.92;20.95;100687.78;5108070;28;20023;-30
2022/04/14 11:01:59;;;;;;;5.97;2.90;;;;;;;23.12;20.73;100694.97;5108523;28;20036;-31
2022/04/14 11:04:24;;;;;;;6.65;2.75;;;;;;;23.45;20.14;100698.69;5108492;28;20399;-33
2022/04/14 11:06:52;;;;;;;4.18;2.67;;;;;;;23.54;18.29;100677.13;5107872;28;20038;-30
2022/04/14 11:09:42;;;;;;;4.85;2.70;;;;;;;23.60;20.38;100684.13;5090106;28;20055;-32
2022/04/14 11:12:14;;;;;;;5.93;2.90;;;;;;;23.26;20.18;100679.59;5108233;28;20024;-30
2022/04/14 11:14:49;;;;;;;4.18;2.60;;;;;;;23.16;19.76;100659.84;5089791;28;20028;-29
2022/04/14 11:17:33;;;;;;;4.85;2.78;;;;;;;23.30;21.57;100681.75;5089448;28;20066;-30
2022/04/14 11:20:15;;;;;;;6.88;2.67;;;;;;;23.47;19.05;100673.91;5089686;28;20123;-31
2022/04/14 11:23:08;;;;;;;6.88;2.65;;;;;;;23.81;19.91;100679.25;5108189;28;20031;-29